sensor_id;sensor_type;location;lat;lon;timestamp;temperature;humidity
38480;DHT22;62333;51.980;5.934;2024-02-23T00:01:50;8.80;85.80
38480;DHT22;62333;51.980;5.934;2024-02-23T00:04:15;8.80;85.70
38480;DHT22;62333;51.980;5.934;2024-02-23T00:06:41;8.80;85.90
38480;DHT22;62333;51.980;5.934;2024-02-23T00:09:07;8.80;85.90
38480;DHT22;62333;51.980;5.934;2024-02-23T00:11:32;8.90;85.90
38480;DHT22;62333;51.980;5.934;2024-02-23T00:13:59;8.90;85.40
38480;DHT22;62333;51.980;5.934;2024-02-23T00:16:25;8.80;85.00
38480;DHT22;62333;51.980;5.934;2024-02-23T00:18:52;8.80;85.00
38480;DHT22;62333;51.980;5.934;2024-02-23T00:21:17;8.80;85.20
38480;DHT22;62333;51.980;5.934;2024-02-23T00:23:43;8.80;85.50
38480;DHT22;62333;51.980;5.934;2024-02-23T00:26:09;8.80;85.80
38480;DHT22;62333;51.980;5.934;2024-02-23T00:28:34;8.70;85.90
38480;DHT22;62333;51.980;5.934;2024-02-23T00:31:00;8.90;86.10
38480;DHT22;62333;51.980;5.934;2024-02-23T00:33:26;8.90;86.20
38480;DHT22;62333;51.980;5.934;2024-02-23T00:35:51;8.90;86.20
38480;DHT22;62333;51.980;5.934;2024-02-23T00:38:17;8.90;86.10
38480;DHT22;62333;51.980;5.934;2024-02-23T00:40:43;8.90;86.20
38480;DHT22;62333;51.980;5.934;2024-02-23T00:43:08;8.90;86.00
38480;DHT22;62333;51.980;5.934;2024-02-23T00:45:35;8.90;86.00
38480;DHT22;62333;51.980;5.934;2024-02-23T00:48:00;8.90;86.00
38480;DHT22;62333;51.980;5.934;2024-02-23T00:50:26;8.90;86.00
38480;DHT22;62333;51.980;5.934;2024-02-23T00:52:53;8.90;86.00
38480;DHT22;62333;51.980;5.934;2024-02-23T00:55:18;8.90;86.00
38480;DHT22;62333;51.980;5.934;2024-02-23T00:57:44;8.90;85.90
38480;DHT22;62333;51.980;5.934;2024-02-23T01:00:11;8.90;85.90
38480;DHT22;62333;51.980;5.934;2024-02-23T01:02:37;8.80;85.60
38480;DHT22;62333;51.980;5.934;2024-02-23T01:05:04;8.80;85.50
38480;DHT22;62333;51.980;5.934;2024-02-23T01:07:30;8.80;85.60
38480;DHT22;62333;51.980;5.934;2024-02-23T01:09:55;8.80;85.70
38480;DHT22;62333;51.980;5.934;2024-02-23T01:12:21;8.80;85.70
38480;DHT22;62333;51.980;5.934;2024-02-23T01:14:47;8.90;85.80
38480;DHT22;62333;51.980;5.934;2024-02-23T01:17:14;8.90;85.70
38480;DHT22;62333;51.980;5.934;2024-02-23T01:19:41;8.90;85.70
38480;DHT22;62333;51.980;5.934;2024-02-23T01:22:08;9.00;85.80
38480;DHT22;62333;51.980;5.934;2024-02-23T01:24:33;9.00;85.90
38480;DHT22;62333;51.980;5.934;2024-02-23T01:26:59;9.00;85.90
38480;DHT22;62333;51.980;5.934;2024-02-23T01:29:25;9.00;85.90
38480;DHT22;62333;51.980;5.934;2024-02-23T01:31:51;8.90;86.10
38480;DHT22;62333;51.980;5.934;2024-02-23T01:34:17;8.90;86.10
38480;DHT22;62333;51.980;5.934;2024-02-23T01:36:43;8.90;86.10
38480;DHT22;62333;51.980;5.934;2024-02-23T01:39:09;8.90;86.20
38480;DHT22;62333;51.980;5.934;2024-02-23T01:41:36;8.90;86.20
38480;DHT22;62333;51.980;5.934;2024-02-23T01:44:02;8.90;86.20
38480;DHT22;62333;51.980;5.934;2024-02-23T01:46:27;9.00;86.20
38480;DHT22;62333;51.980;5.934;2024-02-23T01:48:53;9.00;86.20
38480;DHT22;62333;51.980;5.934;2024-02-23T01:51:19;9.00;86.00
38480;DHT22;62333;51.980;5.934;2024-02-23T01:53:46;8.90;85.90
38480;DHT22;62333;51.980;5.934;2024-02-23T01:56:14;8.90;86.00
38480;DHT22;62333;51.980;5.934;2024-02-23T01:58:43;8.90;85.90
38480;DHT22;62333;51.980;5.934;2024-02-23T02:01:10;8.90;85.90
38480;DHT22;62333;51.980;5.934;2024-02-23T02:03:37;8.90;85.70
38480;DHT22;62333;51.980;5.934;2024-02-23T02:06:07;8.90;85.60
38480;DHT22;62333;51.980;5.934;2024-02-23T02:08:37;9.00;85.60
38480;DHT22;62333;51.980;5.934;2024-02-23T02:11:03;9.00;85.30
38480;DHT22;62333;51.980;5.934;2024-02-23T02:13:29;9.00;85.20
38480;DHT22;62333;51.980;5.934;2024-02-23T02:15:55;8.90;85.20
38480;DHT22;62333;51.980;5.934;2024-02-23T02:18:21;8.90;85.20
38480;DHT22;62333;51.980;5.934;2024-02-23T02:20:52;8.90;85.00
38480;DHT22;62333;51.980;5.934;2024-02-23T02:23:18;8.90;84.90
38480;DHT22;62333;51.980;5.934;2024-02-23T02:25:44;8.90;84.80
38480;DHT22;62333;51.980;5.934;2024-02-23T02:28:10;8.90;84.70
38480;DHT22;62333;51.980;5.934;2024-02-23T02:30:35;8.90;84.60
38480;DHT22;62333;51.980;5.934;2024-02-23T02:33:01;8.90;84.50
38480;DHT22;62333;51.980;5.934;2024-02-23T02:35:26;8.90;84.50
38480;DHT22;62333;51.980;5.934;2024-02-23T02:37:52;8.90;84.40
38480;DHT22;62333;51.980;5.934;2024-02-23T02:40:18;8.90;84.30
38480;DHT22;62333;51.980;5.934;2024-02-23T02:42:43;8.90;84.20
38480;DHT22;62333;51.980;5.934;2024-02-23T02:45:09;9.00;84.00
38480;DHT22;62333;51.980;5.934;2024-02-23T02:47:35;8.90;83.90
38480;DHT22;62333;51.980;5.934;2024-02-23T02:50:01;8.90;83.90
38480;DHT22;62333;51.980;5.934;2024-02-23T02:52:27;8.90;83.80
38480;DHT22;62333;51.980;5.934;2024-02-23T02:54:54;8.90;83.90
38480;DHT22;62333;51.980;5.934;2024-02-23T02:57:19;8.90;83.80
38480;DHT22;62333;51.980;5.934;2024-02-23T02:59:45;8.90;83.70
38480;DHT22;62333;51.980;5.934;2024-02-23T03:02:11;8.90;83.60
38480;DHT22;62333;51.980;5.934;2024-02-23T03:04:37;8.90;83.50
38480;DHT22;62333;51.980;5.934;2024-02-23T03:07:03;8.90;83.60
38480;DHT22;62333;51.980;5.934;2024-02-23T03:09:28;8.90;83.50
38480;DHT22;62333;51.980;5.934;2024-02-23T03:11:54;8.90;83.40
38480;DHT22;62333;51.980;5.934;2024-02-23T03:14:20;8.90;83.30
38480;DHT22;62333;51.980;5.934;2024-02-23T03:16:46;8.90;83.30
38480;DHT22;62333;51.980;5.934;2024-02-23T03:19:13;8.90;83.30
38480;DHT22;62333;51.980;5.934;2024-02-23T03:21:39;8.90;83.20
38480;DHT22;62333;51.980;5.934;2024-02-23T03:24:04;8.90;83.10
38480;DHT22;62333;51.980;5.934;2024-02-23T03:26:30;8.90;83.20
38480;DHT22;62333;51.980;5.934;2024-02-23T03:28:56;8.90;83.80
38480;DHT22;62333;51.980;5.934;2024-02-23T03:31:21;8.90;83.20
38480;DHT22;62333;51.980;5.934;2024-02-23T03:33:47;8.90;83.20
38480;DHT22;62333;51.980;5.934;2024-02-23T03:36:13;8.90;83.00
38480;DHT22;62333;51.980;5.934;2024-02-23T03:38:38;8.90;83.10
38480;DHT22;62333;51.980;5.934;2024-02-23T03:41:04;8.90;83.00
38480;DHT22;62333;51.980;5.934;2024-02-23T03:43:29;8.90;82.90
38480;DHT22;62333;51.980;5.934;2024-02-23T03:45:55;8.90;82.80
38480;DHT22;62333;51.980;5.934;2024-02-23T03:48:21;8.90;82.50
38480;DHT22;62333;51.980;5.934;2024-02-23T03:50:46;8.90;82.50
38480;DHT22;62333;51.980;5.934;2024-02-23T03:53:12;8.80;82.50
38480;DHT22;62333;51.980;5.934;2024-02-23T03:55:38;8.80;82.30
38480;DHT22;62333;51.980;5.934;2024-02-23T03:58:03;8.80;82.50
38480;DHT22;62333;51.980;5.934;2024-02-23T04:00:29;8.80;82.70
38480;DHT22;62333;51.980;5.934;2024-02-23T04:02:55;8.80;82.60
38480;DHT22;62333;51.980;5.934;2024-02-23T04:05:20;8.80;82.80
38480;DHT22;62333;51.980;5.934;2024-02-23T04:07:46;8.80;82.70
38480;DHT22;62333;51.980;5.934;2024-02-23T04:10:11;8.80;82.70
38480;DHT22;62333;51.980;5.934;2024-02-23T04:12:42;8.80;82.70
38480;DHT22;62333;51.980;5.934;2024-02-23T04:15:09;8.80;82.70
38480;DHT22;62333;51.980;5.934;2024-02-23T04:17:35;8.70;82.60
38480;DHT22;62333;51.980;5.934;2024-02-23T04:20:06;8.80;82.80
38480;DHT22;62333;51.980;5.934;2024-02-23T04:22:32;8.80;82.70
38480;DHT22;62333;51.980;5.934;2024-02-23T04:24:57;8.80;82.80
38480;DHT22;62333;51.980;5.934;2024-02-23T04:27:23;8.80;82.70
38480;DHT22;62333;51.980;5.934;2024-02-23T04:29:48;8.80;82.60
38480;DHT22;62333;51.980;5.934;2024-02-23T04:32:14;8.80;82.70
38480;DHT22;62333;51.980;5.934;2024-02-23T04:34:40;8.80;82.70
38480;DHT22;62333;51.980;5.934;2024-02-23T04:37:06;8.80;82.70
38480;DHT22;62333;51.980;5.934;2024-02-23T04:39:32;8.80;82.70
38480;DHT22;62333;51.980;5.934;2024-02-23T04:41:58;8.80;82.70
38480;DHT22;62333;51.980;5.934;2024-02-23T04:44:23;8.80;82.70
38480;DHT22;62333;51.980;5.934;2024-02-23T04:46:49;8.80;82.60
38480;DHT22;62333;51.980;5.934;2024-02-23T04:49:15;8.80;82.50
38480;DHT22;62333;51.980;5.934;2024-02-23T04:51:40;8.80;82.60
38480;DHT22;62333;51.980;5.934;2024-02-23T04:54:06;8.80;82.70
38480;DHT22;62333;51.980;5.934;2024-02-23T04:56:32;8.90;82.70
38480;DHT22;62333;51.980;5.934;2024-02-23T04:58:59;8.80;82.60
38480;DHT22;62333;51.980;5.934;2024-02-23T05:01:25;8.90;82.70
38480;DHT22;62333;51.980;5.934;2024-02-23T05:03:50;8.80;82.60
38480;DHT22;62333;51.980;5.934;2024-02-23T05:06:16;8.80;82.60
38480;DHT22;62333;51.980;5.934;2024-02-23T05:08:41;8.80;82.60
38480;DHT22;62333;51.980;5.934;2024-02-23T05:11:07;8.80;82.80
38480;DHT22;62333;51.980;5.934;2024-02-23T05:13:33;8.90;82.90
38480;DHT22;62333;51.980;5.934;2024-02-23T05:15:58;8.80;82.80
38480;DHT22;62333;51.980;5.934;2024-02-23T05:18:24;8.90;82.80
38480;DHT22;62333;51.980;5.934;2024-02-23T05:20:50;8.90;82.90
38480;DHT22;62333;51.980;5.934;2024-02-23T05:23:15;8.90;82.60
38480;DHT22;62333;51.980;5.934;2024-02-23T05:25:44;8.90;82.50
38480;DHT22;62333;51.980;5.934;2024-02-23T05:28:09;8.90;82.70
38480;DHT22;62333;51.980;5.934;2024-02-23T05:30:35;9.00;82.80
38480;DHT22;62333;51.980;5.934;2024-02-23T05:33:01;9.00;82.90
38480;DHT22;62333;51.980;5.934;2024-02-23T05:35:29;9.00;82.70
38480;DHT22;62333;51.980;5.934;2024-02-23T05:37:55;9.00;82.70
38480;DHT22;62333;51.980;5.934;2024-02-23T05:40:21;9.00;82.70
38480;DHT22;62333;51.980;5.934;2024-02-23T05:42:47;9.10;82.60
38480;DHT22;62333;51.980;5.934;2024-02-23T05:45:12;9.00;82.80
38480;DHT22;62333;51.980;5.934;2024-02-23T05:47:38;9.00;82.80
38480;DHT22;62333;51.980;5.934;2024-02-23T05:50:05;9.00;82.70
38480;DHT22;62333;51.980;5.934;2024-02-23T05:52:34;9.00;82.70
38480;DHT22;62333;51.980;5.934;2024-02-23T05:55:00;9.00;82.80
38480;DHT22;62333;51.980;5.934;2024-02-23T05:57:28;9.10;82.70
38480;DHT22;62333;51.980;5.934;2024-02-23T05:59:54;9.10;82.60
38480;DHT22;62333;51.980;5.934;2024-02-23T06:02:23;9.10;82.80
38480;DHT22;62333;51.980;5.934;2024-02-23T06:04:49;9.10;82.70
38480;DHT22;62333;51.980;5.934;2024-02-23T06:07:15;9.10;82.80
38480;DHT22;62333;51.980;5.934;2024-02-23T06:09:46;9.20;82.80
38480;DHT22;62333;51.980;5.934;2024-02-23T06:12:11;9.10;82.60
38480;DHT22;62333;51.980;5.934;2024-02-23T06:14:37;9.10;82.30
38480;DHT22;62333;51.980;5.934;2024-02-23T06:17:03;9.10;82.10
38480;DHT22;62333;51.980;5.934;2024-02-23T06:19:29;9.10;82.20
38480;DHT22;62333;51.980;5.934;2024-02-23T06:21:55;9.10;82.30
38480;DHT22;62333;51.980;5.934;2024-02-23T06:24:20;9.20;82.10
38480;DHT22;62333;51.980;5.934;2024-02-23T06:26:46;9.20;82.20
38480;DHT22;62333;51.980;5.934;2024-02-23T06:29:14;9.20;82.10
38480;DHT22;62333;51.980;5.934;2024-02-23T06:31:40;9.20;82.10
38480;DHT22;62333;51.980;5.934;2024-02-23T06:34:07;9.10;81.80
38480;DHT22;62333;51.980;5.934;2024-02-23T06:36:33;9.10;82.00
38480;DHT22;62333;51.980;5.934;2024-02-23T06:38:58;9.20;82.20
38480;DHT22;62333;51.980;5.934;2024-02-23T06:41:24;9.20;81.90
38480;DHT22;62333;51.980;5.934;2024-02-23T06:43:50;9.20;81.80
38480;DHT22;62333;51.980;5.934;2024-02-23T06:46:19;9.20;81.70
38480;DHT22;62333;51.980;5.934;2024-02-23T06:48:45;9.20;81.90
38480;DHT22;62333;51.980;5.934;2024-02-23T06:51:11;9.20;81.90
38480;DHT22;62333;51.980;5.934;2024-02-23T06:53:37;9.20;81.90
38480;DHT22;62333;51.980;5.934;2024-02-23T06:56:03;9.20;81.90
38480;DHT22;62333;51.980;5.934;2024-02-23T06:58:29;9.30;81.70
38480;DHT22;62333;51.980;5.934;2024-02-23T07:00:55;9.30;81.70
38480;DHT22;62333;51.980;5.934;2024-02-23T07:03:20;9.30;81.70
38480;DHT22;62333;51.980;5.934;2024-02-23T07:05:46;9.30;81.70
38480;DHT22;62333;51.980;5.934;2024-02-23T07:08:13;9.30;81.50
38480;DHT22;62333;51.980;5.934;2024-02-23T07:10:39;9.40;81.70
38480;DHT22;62333;51.980;5.934;2024-02-23T07:13:05;9.40;81.90
38480;DHT22;62333;51.980;5.934;2024-02-23T07:15:32;9.30;80.90
38480;DHT22;62333;51.980;5.934;2024-02-23T07:17:58;9.40;80.80
38480;DHT22;62333;51.980;5.934;2024-02-23T07:20:24;9.30;80.90
38480;DHT22;62333;51.980;5.934;2024-02-23T07:22:49;9.40;81.00
38480;DHT22;62333;51.980;5.934;2024-02-23T07:25:18;9.40;81.00
38480;DHT22;62333;51.980;5.934;2024-02-23T07:27:47;9.40;81.00
38480;DHT22;62333;51.980;5.934;2024-02-23T07:30:16;9.40;81.00
38480;DHT22;62333;51.980;5.934;2024-02-23T07:32:43;9.40;80.90
38480;DHT22;62333;51.980;5.934;2024-02-23T07:35:09;9.40;80.60
38480;DHT22;62333;51.980;5.934;2024-02-23T07:37:35;9.50;80.80
38480;DHT22;62333;51.980;5.934;2024-02-23T07:40:01;9.40;80.10
38480;DHT22;62333;51.980;5.934;2024-02-23T07:42:28;9.40;80.00
38480;DHT22;62333;51.980;5.934;2024-02-23T07:44:54;9.50;80.20
38480;DHT22;62333;51.980;5.934;2024-02-23T07:47:19;9.50;79.70
38480;DHT22;62333;51.980;5.934;2024-02-23T07:49:45;9.50;79.20
38480;DHT22;62333;51.980;5.934;2024-02-23T07:52:11;9.50;79.40
38480;DHT22;62333;51.980;5.934;2024-02-23T07:54:36;9.50;79.30
38480;DHT22;62333;51.980;5.934;2024-02-23T07:57:02;9.50;79.00
38480;DHT22;62333;51.980;5.934;2024-02-23T07:59:29;9.50;78.60
38480;DHT22;62333;51.980;5.934;2024-02-23T08:01:55;9.50;78.40
38480;DHT22;62333;51.980;5.934;2024-02-23T08:04:21;9.50;78.50
38480;DHT22;62333;51.980;5.934;2024-02-23T08:06:47;9.50;78.50
38480;DHT22;62333;51.980;5.934;2024-02-23T08:09:14;9.50;78.80
38480;DHT22;62333;51.980;5.934;2024-02-23T08:11:39;9.60;79.00
38480;DHT22;62333;51.980;5.934;2024-02-23T08:14:05;9.50;78.90
38480;DHT22;62333;51.980;5.934;2024-02-23T08:16:31;9.60;78.70
38480;DHT22;62333;51.980;5.934;2024-02-23T08:18:56;9.60;78.90
38480;DHT22;62333;51.980;5.934;2024-02-23T08:21:22;9.50;78.80
38480;DHT22;62333;51.980;5.934;2024-02-23T08:23:48;9.60;78.80
38480;DHT22;62333;51.980;5.934;2024-02-23T08:26:13;9.60;78.70
38480;DHT22;62333;51.980;5.934;2024-02-23T08:28:40;9.60;78.60
38480;DHT22;62333;51.980;5.934;2024-02-23T08:31:06;9.70;78.70
38480;DHT22;62333;51.980;5.934;2024-02-23T08:33:31;9.80;78.40
38480;DHT22;62333;51.980;5.934;2024-02-23T08:35:57;9.80;78.30
38480;DHT22;62333;51.980;5.934;2024-02-23T08:38:23;9.70;78.20
38480;DHT22;62333;51.980;5.934;2024-02-23T08:40:48;9.70;78.00
38480;DHT22;62333;51.980;5.934;2024-02-23T08:43:14;9.80;77.90
38480;DHT22;62333;51.980;5.934;2024-02-23T08:45:40;9.80;77.40
38480;DHT22;62333;51.980;5.934;2024-02-23T08:48:06;9.80;76.90
38480;DHT22;62333;51.980;5.934;2024-02-23T08:50:32;9.80;76.70
38480;DHT22;62333;51.980;5.934;2024-02-23T08:52:58;9.80;77.00
38480;DHT22;62333;51.980;5.934;2024-02-23T08:55:24;9.90;77.10
38480;DHT22;62333;51.980;5.934;2024-02-23T08:57:49;10.00;77.90
38480;DHT22;62333;51.980;5.934;2024-02-23T09:00:15;10.10;78.00
38480;DHT22;62333;51.980;5.934;2024-02-23T09:02:41;10.20;78.60
38480;DHT22;62333;51.980;5.934;2024-02-23T09:05:10;10.20;77.60
38480;DHT22;62333;51.980;5.934;2024-02-23T09:07:35;10.20;77.50
38480;DHT22;62333;51.980;5.934;2024-02-23T09:10:02;10.10;77.50
38480;DHT22;62333;51.980;5.934;2024-02-23T09:12:30;10.20;76.90
38480;DHT22;62333;51.980;5.934;2024-02-23T09:14:55;10.10;76.60
38480;DHT22;62333;51.980;5.934;2024-02-23T09:17:21;10.10;76.60
38480;DHT22;62333;51.980;5.934;2024-02-23T09:19:47;10.20;76.50
38480;DHT22;62333;51.980;5.934;2024-02-23T09:22:13;10.20;76.00
38480;DHT22;62333;51.980;5.934;2024-02-23T09:24:42;10.10;76.00
38480;DHT22;62333;51.980;5.934;2024-02-23T09:27:08;10.10;75.70
38480;DHT22;62333;51.980;5.934;2024-02-23T09:29:34;10.10;75.60
38480;DHT22;62333;51.980;5.934;2024-02-23T09:31:59;10.10;75.60
38480;DHT22;62333;51.980;5.934;2024-02-23T09:34:26;10.20;75.80
38480;DHT22;62333;51.980;5.934;2024-02-23T09:36:51;10.20;75.70
38480;DHT22;62333;51.980;5.934;2024-02-23T09:39:17;10.20;75.70
38480;DHT22;62333;51.980;5.934;2024-02-23T09:41:43;10.30;75.80
38480;DHT22;62333;51.980;5.934;2024-02-23T09:44:09;10.20;75.20
38480;DHT22;62333;51.980;5.934;2024-02-23T09:46:40;10.20;75.20
38480;DHT22;62333;51.980;5.934;2024-02-23T09:49:05;10.20;75.20
38480;DHT22;62333;51.980;5.934;2024-02-23T09:51:34;10.10;75.30
38480;DHT22;62333;51.980;5.934;2024-02-23T09:54:01;10.10;75.30
38480;DHT22;62333;51.980;5.934;2024-02-23T09:56:28;10.20;75.40
38480;DHT22;62333;51.980;5.934;2024-02-23T09:58:57;10.20;75.40
38480;DHT22;62333;51.980;5.934;2024-02-23T10:01:31;10.20;74.90
38480;DHT22;62333;51.980;5.934;2024-02-23T10:03:59;10.20;74.80
38480;DHT22;62333;51.980;5.934;2024-02-23T10:06:25;10.10;74.90
38480;DHT22;62333;51.980;5.934;2024-02-23T10:08:51;10.10;75.20
38480;DHT22;62333;51.980;5.934;2024-02-23T10:11:24;10.10;75.90
38480;DHT22;62333;51.980;5.934;2024-02-23T10:13:50;10.10;75.40
38480;DHT22;62333;51.980;5.934;2024-02-23T10:16:20;10.20;75.50
38480;DHT22;62333;51.980;5.934;2024-02-23T10:18:47;10.20;75.40
38480;DHT22;62333;51.980;5.934;2024-02-23T10:21:17;10.30;75.40
38480;DHT22;62333;51.980;5.934;2024-02-23T10:23:47;10.30;75.30
38480;DHT22;62333;51.980;5.934;2024-02-23T10:26:13;10.30;75.50
38480;DHT22;62333;51.980;5.934;2024-02-23T10:28:45;10.20;75.80
38480;DHT22;62333;51.980;5.934;2024-02-23T10:31:11;10.20;76.00
38480;DHT22;62333;51.980;5.934;2024-02-23T10:33:38;10.20;76.40
38480;DHT22;62333;51.980;5.934;2024-02-23T10:36:05;10.30;76.50
38480;DHT22;62333;51.980;5.934;2024-02-23T10:38:32;10.20;76.50
38480;DHT22;62333;51.980;5.934;2024-02-23T10:40:58;10.30;76.70
38480;DHT22;62333;51.980;5.934;2024-02-23T10:43:46;10.20;76.70
38480;DHT22;62333;51.980;5.934;2024-02-23T10:46:12;10.30;76.30
38480;DHT22;62333;51.980;5.934;2024-02-23T10:48:40;10.20;76.80
38480;DHT22;62333;51.980;5.934;2024-02-23T10:51:07;10.20;77.00
38480;DHT22;62333;51.980;5.934;2024-02-23T10:53:34;10.20;77.20
38480;DHT22;62333;51.980;5.934;2024-02-23T10:56:00;10.30;77.30
38480;DHT22;62333;51.980;5.934;2024-02-23T10:58:26;10.40;77.30
38480;DHT22;62333;51.980;5.934;2024-02-23T11:01:00;10.40;77.10
38480;DHT22;62333;51.980;5.934;2024-02-23T11:03:28;10.40;77.00
38480;DHT22;62333;51.980;5.934;2024-02-23T11:05:54;10.40;76.60
38480;DHT22;62333;51.980;5.934;2024-02-23T11:08:20;10.40;76.70
38480;DHT22;62333;51.980;5.934;2024-02-23T11:10:49;10.40;76.60
38480;DHT22;62333;51.980;5.934;2024-02-23T11:13:18;10.50;76.50
38480;DHT22;62333;51.980;5.934;2024-02-23T11:15:44;10.40;77.00
38480;DHT22;62333;51.980;5.934;2024-02-23T11:18:42;10.40;76.30
38480;DHT22;62333;51.980;5.934;2024-02-23T11:21:09;10.50;75.90
38480;DHT22;62333;51.980;5.934;2024-02-23T11:26:06;10.50;76.10
38480;DHT22;62333;51.980;5.934;2024-02-23T11:28:43;10.40;76.20
38480;DHT22;62333;51.980;5.934;2024-02-23T11:31:18;10.50;76.30
38480;DHT22;62333;51.980;5.934;2024-02-23T11:33:48;10.50;76.10
38480;DHT22;62333;51.980;5.934;2024-02-23T11:36:43;10.50;76.10
38480;DHT22;62333;51.980;5.934;2024-02-23T11:39:10;10.50;76.10
38480;DHT22;62333;51.980;5.934;2024-02-23T11:41:39;10.50;76.10
38480;DHT22;62333;51.980;5.934;2024-02-23T11:44:04;10.50;76.20
38480;DHT22;62333;51.980;5.934;2024-02-23T11:46:32;10.50;76.20
38480;DHT22;62333;51.980;5.934;2024-02-23T11:48:58;10.60;76.30
38480;DHT22;62333;51.980;5.934;2024-02-23T11:51:25;10.50;76.20
38480;DHT22;62333;51.980;5.934;2024-02-23T11:53:55;10.50;76.10
38480;DHT22;62333;51.980;5.934;2024-02-23T11:56:23;10.60;76.20
38480;DHT22;62333;51.980;5.934;2024-02-23T11:58:49;10.60;76.20
38480;DHT22;62333;51.980;5.934;2024-02-23T12:01:15;10.70;76.20
38480;DHT22;62333;51.980;5.934;2024-02-23T12:03:41;10.70;76.00
38480;DHT22;62333;51.980;5.934;2024-02-23T12:06:10;10.80;75.90
38480;DHT22;62333;51.980;5.934;2024-02-23T12:08:36;10.80;75.80
38480;DHT22;62333;51.980;5.934;2024-02-23T12:11:09;10.80;75.70
38480;DHT22;62333;51.980;5.934;2024-02-23T12:13:35;10.80;75.60
38480;DHT22;62333;51.980;5.934;2024-02-23T12:16:01;10.80;75.70
38480;DHT22;62333;51.980;5.934;2024-02-23T12:18:28;10.80;75.80
38480;DHT22;62333;51.980;5.934;2024-02-23T12:21:05;10.80;75.60
38480;DHT22;62333;51.980;5.934;2024-02-23T12:23:41;10.80;75.60
38480;DHT22;62333;51.980;5.934;2024-02-23T12:26:08;10.70;75.40
38480;DHT22;62333;51.980;5.934;2024-02-23T12:28:34;10.70;75.60
38480;DHT22;62333;51.980;5.934;2024-02-23T12:31:00;10.70;75.80
38480;DHT22;62333;51.980;5.934;2024-02-23T12:33:33;10.80;75.80
38480;DHT22;62333;51.980;5.934;2024-02-23T12:36:00;10.80;75.80
38480;DHT22;62333;51.980;5.934;2024-02-23T12:38:26;10.80;75.80
38480;DHT22;62333;51.980;5.934;2024-02-23T12:40:52;10.80;75.80
38480;DHT22;62333;51.980;5.934;2024-02-23T12:43:18;10.90;75.80
38480;DHT22;62333;51.980;5.934;2024-02-23T12:45:47;10.90;75.90
38480;DHT22;62333;51.980;5.934;2024-02-23T12:48:15;10.90;75.90
38480;DHT22;62333;51.980;5.934;2024-02-23T12:50:41;10.90;75.80
38480;DHT22;62333;51.980;5.934;2024-02-23T12:53:08;10.90;75.70
38480;DHT22;62333;51.980;5.934;2024-02-23T12:55:35;11.00;75.60
38480;DHT22;62333;51.980;5.934;2024-02-23T12:58:02;11.00;75.60
38480;DHT22;62333;51.980;5.934;2024-02-23T13:00:28;11.00;75.60
38480;DHT22;62333;51.980;5.934;2024-02-23T13:02:54;11.10;75.80
38480;DHT22;62333;51.980;5.934;2024-02-23T13:05:19;11.10;75.50
38480;DHT22;62333;51.980;5.934;2024-02-23T13:07:46;11.10;75.50
38480;DHT22;62333;51.980;5.934;2024-02-23T13:10:12;11.10;75.40
38480;DHT22;62333;51.980;5.934;2024-02-23T13:12:38;11.10;75.30
38480;DHT22;62333;51.980;5.934;2024-02-23T13:15:04;11.10;75.40
38480;DHT22;62333;51.980;5.934;2024-02-23T13:17:30;11.20;75.40
38480;DHT22;62333;51.980;5.934;2024-02-23T13:19:55;11.20;75.40
38480;DHT22;62333;51.980;5.934;2024-02-23T13:22:21;11.20;75.20
38480;DHT22;62333;51.980;5.934;2024-02-23T13:24:47;11.20;75.10
38480;DHT22;62333;51.980;5.934;2024-02-23T13:27:12;11.30;75.10
38480;DHT22;62333;51.980;5.934;2024-02-23T13:29:38;11.40;75.10
38480;DHT22;62333;51.980;5.934;2024-02-23T13:32:04;11.50;75.10
38480;DHT22;62333;51.980;5.934;2024-02-23T13:34:29;11.70;74.90
38480;DHT22;62333;51.980;5.934;2024-02-23T13:36:55;11.80;74.90
38480;DHT22;62333;51.980;5.934;2024-02-23T13:39:21;11.90;74.70
38480;DHT22;62333;51.980;5.934;2024-02-23T13:41:46;11.90;74.80
38480;DHT22;62333;51.980;5.934;2024-02-23T13:44:12;11.90;74.80
38480;DHT22;62333;51.980;5.934;2024-02-23T13:46:40;11.90;74.70
38480;DHT22;62333;51.980;5.934;2024-02-23T13:49:07;11.90;74.80
38480;DHT22;62333;51.980;5.934;2024-02-23T13:51:34;11.80;74.40
38480;DHT22;62333;51.980;5.934;2024-02-23T13:54:00;11.80;73.80
38480;DHT22;62333;51.980;5.934;2024-02-23T13:56:26;11.80;74.10
38480;DHT22;62333;51.980;5.934;2024-02-23T13:58:52;11.80;74.00
38480;DHT22;62333;51.980;5.934;2024-02-23T14:01:17;11.80;73.80
38480;DHT22;62333;51.980;5.934;2024-02-23T14:03:43;11.80;74.70
38480;DHT22;62333;51.980;5.934;2024-02-23T14:06:09;11.70;74.00
38480;DHT22;62333;51.980;5.934;2024-02-23T14:08:35;11.70;74.20
38480;DHT22;62333;51.980;5.934;2024-02-23T14:11:02;11.80;74.40
38480;DHT22;62333;51.980;5.934;2024-02-23T14:13:31;12.00;74.50
38480;DHT22;62333;51.980;5.934;2024-02-23T14:15:56;12.10;74.40
38480;DHT22;62333;51.980;5.934;2024-02-23T14:18:22;12.20;74.30
38480;DHT22;62333;51.980;5.934;2024-02-23T14:20:48;12.40;73.90
38480;DHT22;62333;51.980;5.934;2024-02-23T14:23:13;12.30;73.70
38480;DHT22;62333;51.980;5.934;2024-02-23T14:25:39;12.30;73.70
38480;DHT22;62333;51.980;5.934;2024-02-23T14:28:05;12.40;73.90
38480;DHT22;62333;51.980;5.934;2024-02-23T14:30:30;12.40;73.60
38480;DHT22;62333;51.980;5.934;2024-02-23T14:32:56;12.30;73.20
38480;DHT22;62333;51.980;5.934;2024-02-23T14:35:22;12.30;73.00
38480;DHT22;62333;51.980;5.934;2024-02-23T14:37:47;12.20;72.90
38480;DHT22;62333;51.980;5.934;2024-02-23T14:40:13;12.20;73.10
38480;DHT22;62333;51.980;5.934;2024-02-23T14:42:40;12.20;73.30
38480;DHT22;62333;51.980;5.934;2024-02-23T14:45:06;12.10;73.30
38480;DHT22;62333;51.980;5.934;2024-02-23T14:47:32;12.00;73.30
38480;DHT22;62333;51.980;5.934;2024-02-23T14:49:59;12.00;73.50
38480;DHT22;62333;51.980;5.934;2024-02-23T14:52:25;11.90;73.50
38480;DHT22;62333;51.980;5.934;2024-02-23T14:54:51;11.90;73.60
38480;DHT22;62333;51.980;5.934;2024-02-23T14:57:16;11.90;73.70
38480;DHT22;62333;51.980;5.934;2024-02-23T14:59:42;11.80;73.50
38480;DHT22;62333;51.980;5.934;2024-02-23T15:02:19;11.80;73.80
38480;DHT22;62333;51.980;5.934;2024-02-23T15:04:45;11.70;74.00
38480;DHT22;62333;51.980;5.934;2024-02-23T15:07:11;11.60;74.20
38480;DHT22;62333;51.980;5.934;2024-02-23T15:09:37;11.60;74.40
38480;DHT22;62333;51.980;5.934;2024-02-23T15:12:03;11.70;74.50
38480;DHT22;62333;51.980;5.934;2024-02-23T15:14:29;11.60;74.30
38480;DHT22;62333;51.980;5.934;2024-02-23T15:16:54;11.60;74.70
38480;DHT22;62333;51.980;5.934;2024-02-23T15:19:20;11.60;74.60
38480;DHT22;62333;51.980;5.934;2024-02-23T15:21:48;11.50;75.00
38480;DHT22;62333;51.980;5.934;2024-02-23T15:24:15;11.50;75.10
38480;DHT22;62333;51.980;5.934;2024-02-23T15:26:43;11.50;75.20
38480;DHT22;62333;51.980;5.934;2024-02-23T15:29:09;11.50;75.30
38480;DHT22;62333;51.980;5.934;2024-02-23T15:31:35;11.50;75.20
38480;DHT22;62333;51.980;5.934;2024-02-23T15:34:01;11.50;75.20
38480;DHT22;62333;51.980;5.934;2024-02-23T15:36:28;11.50;75.30
38480;DHT22;62333;51.980;5.934;2024-02-23T15:38:53;11.50;75.30